Time;durP1;ratioP1;P1;durP2;ratioP2;P2;SDS_P1;SDS_P2;PMS_P1;PMS_P2;Temp;Humidity;BMP_temperature;BMP_pressure;BME280_temperature;BME280_humidity;BME280_pressure;Samples;Min_cycle;Max_cycle;Signal;HPM_P1;HPM_P2
2022/08/27 00:00:48;;;;;;;11.88;6.40;;;;;;;18.40;84.70;100060.76;1755060;80;21052;-80
2022/08/27 00:03:16;;;;;;;12.07;6.45;;;;;;;18.43;85.47;100064.51;1754785;80;21552;-80
2022/08/27 00:05:44;;;;;;;10.68;5.90;;;;;;;18.44;85.39;100067.52;1755032;80;21749;-80
2022/08/27 00:08:12;;;;;;;11.70;6.08;;;;;;;18.46;85.60;100061.62;1754668;80;20996;-80
2022/08/27 00:10:41;;;;;;;9.33;6.40;;;;;;;18.44;85.51;100059.55;1755109;80;21063;-80
2022/08/27 00:13:08;;;;;;;12.43;5.78;;;;;;;18.41;85.52;100058.95;1754909;80;21893;-80
2022/08/27 00:15:35;;;;;;;9.78;5.80;;;;;;;18.39;85.64;100061.70;1755085;80;20993;-79
2022/08/27 00:18:04;;;;;;;10.70;5.92;;;;;;;18.35;85.50;100065.56;1754903;80;21834;-80
2022/08/27 00:20:31;;;;;;;9.75;6.47;;;;;;;18.32;85.73;100060.48;1755224;80;21019;-80
2022/08/27 00:22:58;;;;;;;8.08;5.78;;;;;;;18.30;85.76;100059.75;1754882;80;21048;-79
2022/08/27 00:25:26;;;;;;;9.75;5.95;;;;;;;18.27;85.85;100068.78;1755066;80;21048;-80
2022/08/27 00:27:53;;;;;;;8.65;6.05;;;;;;;18.24;85.91;100066.84;1746288;80;21069;-79
2022/08/27 00:30:22;;;;;;;9.55;5.78;;;;;;;18.21;85.96;100065.27;1745618;81;21139;-80
2022/08/27 00:32:50;;;;;;;16.02;5.78;;;;;;;18.18;86.07;100056.20;1740854;81;28210;-80
2022/08/27 00:35:18;;;;;;;13.90;5.75;;;;;;;18.15;86.08;100061.74;1738134;81;21510;-80
2022/08/27 00:37:45;;;;;;;10.88;5.53;;;;;;;18.12;86.16;100059.29;1739123;81;20994;-80
2022/08/27 00:40:17;;;;;;;7.97;5.60;;;;;;;18.08;86.29;100062.30;1738922;81;21302;-80
2022/08/27 00:42:44;;;;;;;11.20;5.97;;;;;;;18.03;86.23;100059.49;1738117;81;21135;-80
2022/08/27 00:45:15;;;;;;;9.33;5.83;;;;;;;17.98;86.28;100060.30;1748775;81;21008;-80
2022/08/27 00:47:47;;;;;;;7.65;5.70;;;;;;;17.96;86.77;100058.75;1770418;81;21042;-79
2022/08/27 00:50:19;;;;;;;9.55;5.40;;;;;;;17.96;86.89;100059.59;1761539;81;21044;-80
2022/08/27 00:52:57;;;;;;;9.60;4.90;;;;;;;17.95;87.09;100057.87;1738159;81;21019;-80
2022/08/27 00:55:34;;;;;;;10.40;6.35;;;;;;;17.94;87.04;100064.64;1738147;81;21733;-80
2022/08/27 00:58:19;;;;;;;11.88;6.55;;;;;;;17.91;87.22;100060.41;1738683;81;21077;-80
2022/08/27 01:00:47;;;;;;;11.08;6.03;;;;;;;17.91;87.23;100062.22;1760777;81;21017;-80
2022/08/27 01:03:17;;;;;;;8.53;5.60;;;;;;;17.88;87.27;100058.47;1738333;81;20920;-80
2022/08/27 01:05:46;;;;;;;11.35;6.47;;;;;;;17.88;87.77;100057.14;1738061;81;21055;-80
2022/08/27 01:08:18;;;;;;;9.55;5.78;;;;;;;17.92;88.03;100058.11;1738330;81;21940;-80
2022/08/27 01:10:46;;;;;;;11.65;6.80;;;;;;;17.93;87.83;100061.14;1737988;81;21466;-80
2022/08/27 01:13:17;;;;;;;11.35;6.87;;;;;;;17.91;87.77;100063.05;1738301;81;21012;-79
2022/08/27 01:15:44;;;;;;;9.73;6.35;;;;;;;17.88;87.81;100055.81;1740427;81;21035;-80
2022/08/27 01:18:13;;;;;;;8.03;5.95;;;;;;;17.89;88.00;100061.47;1763583;80;21069;-80
2022/08/27 01:21:05;;;;;;;10.98;6.42;;;;;;;17.87;87.98;100061.57;1742197;81;21131;-80
2022/08/27 01:23:55;;;;;;;8.53;6.58;;;;;;;17.87;88.03;100058.08;1752072;81;21754;-80
2022/08/27 01:26:23;;;;;;;9.23;6.10;;;;;;;17.86;88.06;100065.19;1738585;81;21055;-80
2022/08/27 01:28:51;;;;;;;8.78;6.25;;;;;;;17.84;88.28;100067.94;1751176;80;21051;-80
2022/08/27 01:31:20;;;;;;;11.18;7.33;;;;;;;17.87;88.86;100067.36;1754795;80;21233;-80
2022/08/27 01:34:04;;;;;;;12.53;6.85;;;;;;;17.93;89.27;100068.23;1754968;80;21260;-80
2022/08/27 01:36:31;;;;;;;12.05;7.40;;;;;;;18.01;89.67;100068.52;1754737;80;20968;-80
2022/08/27 01:38:58;;;;;;;11.53;6.45;;;;;;;18.06;89.81;100073.84;1754944;80;21043;-80
2022/08/27 01:41:26;;;;;;;10.18;6.05;;;;;;;18.11;89.96;100073.52;1754702;80;21476;-79
2022/08/27 01:43:53;;;;;;;10.38;6.05;;;;;;;18.13;89.67;100070.77;1755268;80;21039;-79
2022/08/27 01:46:24;;;;;;;10.13;6.05;;;;;;;18.10;89.21;100066.53;1754680;80;21156;-79
2022/08/27 01:48:51;;;;;;;9.73;5.97;;;;;;;18.05;89.09;100064.22;1761409;80;21055;-79
2022/08/27 01:51:19;;;;;;;12.18;5.87;;;;;;;18.04;89.25;100058.55;1770393;80;21084;-79
2022/08/27 01:53:47;;;;;;;8.03;6.10;;;;;;;18.01;88.93;100061.44;1754706;80;21114;-79
2022/08/27 01:56:15;;;;;;;9.05;5.80;;;;;;;17.98;89.06;100062.95;1755093;80;21110;-79
2022/08/27 01:58:42;;;;;;;8.85;5.33;;;;;;;17.97;89.18;100066.58;1754664;80;21952;-79
2022/08/27 02:01:15;;;;;;;9.65;5.83;;;;;;;17.95;89.00;100063.19;1755019;80;20980;-79
2022/08/27 02:03:43;;;;;;;9.73;6.58;;;;;;;17.90;88.99;100061.34;1754733;80;21039;-79
2022/08/27 02:06:11;;;;;;;8.83;5.97;;;;;;;17.96;90.03;100058.27;1755061;80;21039;-79
2022/08/27 02:08:39;;;;;;;13.62;7.35;;;;;;;17.97;89.44;100057.30;1754781;80;21541;-79
2022/08/27 02:11:07;;;;;;;8.73;6.55;;;;;;;17.99;89.69;100062.50;1755057;80;21953;-79
2022/08/27 02:13:34;;;;;;;11.75;8.13;;;;;;;17.99;89.53;100062.02;1754728;80;21032;-79
2022/08/27 02:16:02;;;;;;;12.45;7.60;;;;;;;18.01;89.65;100060.11;1755340;80;21064;-79
2022/08/27 02:18:29;;;;;;;9.85;6.83;;;;;;;18.05;90.17;100064.22;1755607;80;21012;-79
2022/08/27 02:20:56;;;;;;;15.98;8.10;;;;;;;18.11;90.17;100056.77;1754821;80;21055;-79
2022/08/27 02:23:23;;;;;;;11.12;7.30;;;;;;;18.15;90.37;100056.89;1754779;80;21146;-79
2022/08/27 02:25:50;;;;;;;11.22;6.58;;;;;;;18.09;89.26;100060.00;1754870;80;21036;-79
2022/08/27 02:28:19;;;;;;;11.83;7.28;;;;;;;18.00;88.94;100063.70;1747631;81;21031;-79
2022/08/27 02:30:46;;;;;;;12.00;7.70;;;;;;;17.94;89.00;100063.31;1738131;81;21274;-79
2022/08/27 02:33:13;;;;;;;11.12;7.72;;;;;;;17.92;89.47;100063.89;1737921;81;21035;-79
2022/08/27 02:35:42;;;;;;;11.57;8.08;;;;;;;18.00;90.37;100056.23;1738256;81;21098;-79
2022/08/27 02:38:11;;;;;;;14.87;8.08;;;;;;;18.09;90.88;100060.84;1738074;81;21528;-79
2022/08/27 02:40:39;;;;;;;11.05;7.47;;;;;;;18.17;91.01;100049.67;1738101;81;21028;-79
2022/08/27 02:43:06;;;;;;;8.40;6.92;;;;;;;18.21;91.02;100053.81;1760916;81;21629;-79
2022/08/27 02:45:33;;;;;;;10.30;7.22;;;;;;;18.16;89.91;100052.81;1738834;81;21556;-79
2022/08/27 02:48:00;;;;;;;10.93;6.78;;;;;;;18.06;89.34;100059.75;1738241;81;21071;-80
2022/08/27 02:50:27;;;;;;;8.05;6.80;;;;;;;17.96;89.07;100062.73;1763425;81;21487;-79
2022/08/27 02:52:54;;;;;;;13.68;7.53;;;;;;;17.88;89.15;100067.27;1745485;81;21047;-79
2022/08/27 02:55:22;;;;;;;12.70;7.70;;;;;;;17.83;89.01;100062.77;1738928;81;21004;-80
2022/08/27 02:57:49;;;;;;;13.65;7.90;;;;;;;17.79;89.42;100053.33;1765973;81;21023;-80
2022/08/27 03:00:19;;;;;;;12.33;8.03;;;;;;;17.79;89.57;100052.00;1763544;80;21104;-79
2022/08/27 03:02:47;;;;;;;9.88;7.97;;;;;;;17.79;90.04;100060.83;1739607;81;21126;-79
2022/08/27 03:05:15;;;;;;;13.40;8.15;;;;;;;17.86;90.54;100059.89;1749023;81;21003;-79
2022/08/27 03:07:43;;;;;;;12.30;7.70;;;;;;;17.84;90.14;100062.64;1749963;81;21055;-79
2022/08/27 03:10:13;;;;;;;12.28;8.05;;;;;;;17.80;89.92;100067.81;1745978;81;21039;-79
2022/08/27 03:12:43;;;;;;;8.93;7.70;;;;;;;17.76;89.79;100066.77;1751809;81;22230;-80
2022/08/27 03:15:14;;;;;;;13.50;8.08;;;;;;;17.72;89.92;100063.50;1760643;81;21004;-79
2022/08/27 03:20:27;;;;;;;13.53;8.53;;;;;;;17.70;90.47;100073.84;1746494;81;21098;-79
2022/08/27 03:22:54;;;;;;;14.07;9.30;;;;;;;17.70;90.27;100072.52;1751596;80;21027;-79
2022/08/27 03:25:22;;;;;;;15.40;9.33;;;;;;;17.71;90.78;100076.41;1739481;81;21180;-79
2022/08/27 03:27:49;;;;;;;15.13;8.83;;;;;;;17.78;91.44;100078.99;1739945;81;21568;-80
2022/08/27 03:30:19;;;;;;;15.00;8.73;;;;;;;17.87;92.06;100076.64;1757432;80;21536;-79
2022/08/27 03:32:47;;;;;;;12.88;8.93;;;;;;;17.92;92.03;100079.32;1773746;80;21115;-79
2022/08/27 03:35:14;;;;;;;11.53;8.05;;;;;;;17.96;92.03;100079.97;1754717;80;21032;-79
2022/08/27 03:37:42;;;;;;;10.82;8.90;;;;;;;17.92;91.02;100085.11;1754765;80;21121;-80
2022/08/27 03:40:10;;;;;;;11.93;8.25;;;;;;;17.82;90.56;100091.09;1754610;80;21079;-80
2022/08/27 03:42:37;;;;;;;10.90;7.28;;;;;;;17.79;90.67;100086.01;1754618;80;21043;-80
2022/08/27 03:45:07;;;;;;;10.25;7.40;;;;;;;17.78;90.71;100090.05;1754836;80;21040;-80
2022/08/27 03:47:35;;;;;;;10.68;7.70;;;;;;;17.71;90.33;100086.13;1754974;80;21068;-79
2022/08/27 03:50:05;;;;;;;10.90;7.55;;;;;;;17.64;90.39;100087.06;1754797;80;21136;-79
2022/08/27 03:52:34;;;;;;;10.88;8.08;;;;;;;17.57;90.40;100086.66;1755064;80;21040;-79
2022/08/27 03:55:03;;;;;;;10.13;7.50;;;;;;;17.56;90.65;100078.81;1754812;80;21509;-79
2022/08/27 03:57:31;;;;;;;10.40;8.10;;;;;;;17.53;90.73;100078.55;1755510;80;21044;-79
2022/08/27 03:59:59;;;;;;;9.00;7.83;;;;;;;17.49;90.78;100079.73;1754773;80;21106;-79
2022/08/27 04:02:26;;;;;;;10.18;8.10;;;;;;;17.48;91.00;100074.05;1755077;80;21790;-79
2022/08/27 04:04:56;;;;;;;12.37;7.78;;;;;;;17.48;91.12;100069.23;1764148;80;20998;-79
2022/08/27 04:07:22;;;;;;;11.70;8.17;;;;;;;17.44;90.81;100072.59;1768267;80;21020;-79
2022/08/27 04:09:50;;;;;;;14.00;7.90;;;;;;;17.45;91.47;100078.73;1754766;80;20992;-79
2022/08/27 04:12:16;;;;;;;10.05;7.67;;;;;;;17.46;91.40;100075.11;1755181;80;21067;-79
2022/08/27 04:14:44;;;;;;;13.98;7.78;;;;;;;17.42;91.07;100070.52;1754724;80;21060;-79
2022/08/27 04:17:11;;;;;;;14.13;8.18;;;;;;;17.37;90.90;100077.94;1755127;80;21012;-79
2022/08/27 04:19:38;;;;;;;9.05;7.35;;;;;;;17.32;90.67;100086.23;1754685;80;21024;-79
2022/08/27 04:22:06;;;;;;;13.00;7.65;;;;;;;17.25;90.72;100084.95;1754897;80;21056;-79
2022/08/27 04:24:36;;;;;;;13.85;8.05;;;;;;;17.22;90.81;100089.62;1754790;80;20997;-80
2022/08/27 04:27:04;;;;;;;14.55;7.45;;;;;;;17.21;91.03;100101.16;1756323;80;21067;-80
2022/08/27 04:29:32;;;;;;;13.53;7.55;;;;;;;17.19;91.27;100111.03;1752861;81;21459;-79
2022/08/27 04:31:59;;;;;;;11.73;8.38;;;;;;;17.23;91.70;100137.17;1749621;81;21053;-79
2022/08/27 04:34:26;;;;;;;15.08;9.00;;;;;;;17.25;91.73;100155.14;1739398;81;21057;-80
2022/08/27 04:36:57;;;;;;;13.70;9.78;;;;;;;17.24;91.84;100147.31;1739462;81;21023;-80
2022/08/27 04:39:27;;;;;;;14.93;10.80;;;;;;;17.27;92.37;100168.30;1738040;81;21092;-79
2022/08/27 04:41:57;;;;;;;14.00;10.70;;;;;;;17.30;92.69;100158.33;1742129;81;20948;-80
2022/08/27 04:44:28;;;;;;;14.43;11.28;;;;;;;17.34;92.87;100138.60;1756238;81;21545;-80
2022/08/27 04:47:05;;;;;;;17.17;11.85;;;;;;;17.35;92.72;100148.75;1749632;81;21037;-80
2022/08/27 04:49:32;;;;;;;15.15;11.28;;;;;;;17.32;92.81;100140.53;1746662;81;20996;-79
2022/08/27 04:51:59;;;;;;;13.38;10.95;;;;;;;17.30;93.10;100137.62;1739710;81;22348;-80
2022/08/27 04:54:26;;;;;;;14.63;10.40;;;;;;;17.32;93.21;100144.51;1739358;81;20931;-79
2022/08/27 04:56:53;;;;;;;16.50;11.53;;;;;;;17.35;93.55;100135.50;1739626;81;21041;-80
2022/08/27 04:59:22;;;;;;;14.93;10.20;;;;;;;17.40;93.78;100117.45;1754445;81;21105;-79
2022/08/27 05:01:50;;;;;;;10.82;9.65;;;;;;;17.46;94.14;100117.05;1743583;81;21051;-79
2022/08/27 05:04:22;;;;;;;13.35;10.30;;;;;;;17.55;94.36;100115.06;1738144;81;21130;-79
2022/08/27 05:06:49;;;;;;;15.53;10.23;;;;;;;17.77;94.76;100105.59;1743762;81;21017;-80
2022/08/27 05:09:17;;;;;;;13.85;9.30;;;;;;;17.77;94.76;100105.59;1744815;81;22112;-82
2022/08/27 05:11:45;;;;;;;13.70;10.25;;;;;;;17.89;94.96;100102.56;1776585;79;21616;-82
2022/08/27 05:14:15;;;;;;;12.18;9.58;;;;;;;17.99;94.90;100107.09;1770115;80;21097;-81
2022/08/27 05:16:42;;;;;;;12.55;8.98;;;;;;;18.09;94.82;100094.48;1749857;81;21129;-81
2022/08/27 05:19:13;;;;;;;13.38;8.00;;;;;;;18.18;95.02;100109.26;1746167;81;21101;-81
2022/08/27 05:21:47;;;;;;;11.68;8.10;;;;;;;18.29;94.71;100107.14;1749591;81;21055;-81
2022/08/27 05:24:16;;;;;;;10.18;7.92;;;;;;;18.38;94.54;100086.55;1738746;81;21025;-81
2022/08/27 05:26:44;;;;;;;11.33;7.73;;;;;;;18.46;94.38;100078.87;1739352;81;21098;-81
2022/08/27 05:29:12;;;;;;;11.25;7.42;;;;;;;18.56;94.38;100075.52;1753713;79;21814;-80
2022/08/27 05:31:40;;;;;;;9.68;7.45;;;;;;;18.62;94.20;100067.95;1777322;79;21025;-80
2022/08/27 05:34:08;;;;;;;9.15;7.35;;;;;;;18.70;94.09;100060.70;1756986;80;21000;-80
2022/08/27 05:36:35;;;;;;;10.63;8.00;;;;;;;18.77;93.96;100062.46;1738925;81;20995;-80
2022/08/27 05:39:05;;;;;;;9.45;7.45;;;;;;;18.83;94.08;100054.02;1755103;81;21063;-81
2022/08/27 05:41:33;;;;;;;8.68;6.85;;;;;;;18.90;93.85;100053.89;1764983;81;21141;-81
2022/08/27 05:44:10;;;;;;;9.05;6.95;;;;;;;18.95;93.79;100059.70;1759062;81;20971;-80
2022/08/27 05:46:39;;;;;;;8.78;6.37;;;;;;;19.01;93.81;100053.06;1770231;81;21031;-80
2022/08/27 05:49:06;;;;;;;;;;;;;;;19.07;93.80;100046.81;1769801;81;21114;-81
2022/08/27 05:51:36;;;;;;;8.38;5.90;;;;;;;19.15;93.89;100040.91;1765563;81;20529;-80
2022/08/27 05:54:13;;;;;;;11.30;6.00;;;;;;;19.19;93.67;100038.84;1741602;81;21308;-80
2022/08/27 05:56:38;;;;;;;9.05;5.80;;;;;;;19.25;93.56;100031.70;1747463;81;21054;-81
2022/08/27 06:01:54;;;;;;;8.65;5.30;;;;;;;19.38;93.50;100034.60;1749232;79;20986;-81
2022/08/27 06:04:24;;;;;;;9.68;5.87;;;;;;;19.49;93.49;100034.23;1755133;79;21035;-81
2022/08/27 06:06:52;;;;;;;8.53;6.00;;;;;;;19.55;93.37;100021.28;1769898;80;21214;-81
2022/08/27 06:09:24;;;;;;;7.72;5.95;;;;;;;19.63;93.46;100023.82;1748582;81;21019;-81
2022/08/27 06:11:54;;;;;;;10.90;6.00;;;;;;;19.72;93.22;100025.27;1752242;80;21051;-80
2022/08/27 06:14:22;;;;;;;10.93;6.20;;;;;;;19.79;93.03;100033.61;1789632;78;21007;-81
2022/08/27 06:16:50;;;;;;;8.63;6.10;;;;;;;19.85;92.95;100040.25;1763395;78;21648;-81
2022/08/27 06:19:21;;;;;;;7.85;5.62;;;;;;;19.92;92.90;100042.25;1744484;81;21119;-81
2022/08/27 06:21:49;;;;;;;8.83;5.83;;;;;;;20.00;92.87;100052.27;1740162;79;21015;-81
2022/08/27 06:24:16;;;;;;;9.73;5.40;;;;;;;20.06;92.70;100053.09;1784111;80;21065;-81
2022/08/27 06:26:44;;;;;;;7.90;5.30;;;;;;;20.14;92.52;100052.47;1769313;80;21478;-80
2022/08/27 06:29:13;;;;;;;10.30;6.40;;;;;;;20.21;92.42;100056.33;1754502;81;21037;-81
2022/08/27 06:31:41;;;;;;;6.30;4.87;;;;;;;20.28;92.17;100051.70;1746445;81;21127;-81
2022/08/27 06:34:09;;;;;;;7.15;5.17;;;;;;;20.35;91.81;100049.37;1746425;81;21064;-81
2022/08/27 06:36:41;;;;;;;7.47;5.58;;;;;;;20.42;91.75;100049.69;1732169;81;21075;-81
2022/08/27 06:39:12;;;;;;;7.80;5.55;;;;;;;20.50;91.84;100047.23;1724833;81;21573;-81
2022/08/27 06:41:45;;;;;;;6.65;5.47;;;;;;;20.60;91.51;100055.33;1752303;81;21044;-81
2022/08/27 06:44:13;;;;;;;6.83;5.40;;;;;;;20.66;91.28;100060.97;1743101;81;22203;-81
2022/08/27 06:46:42;;;;;;;7.85;5.40;;;;;;;20.71;91.15;100056.10;1731661;81;21032;-81
2022/08/27 06:49:10;;;;;;;7.05;4.90;;;;;;;20.78;90.87;100059.08;1728668;81;21095;-80
2022/08/27 06:51:41;;;;;;;8.90;5.85;;;;;;;20.84;90.87;100063.91;1752914;81;21004;-81
2022/08/27 06:54:11;;;;;;;9.08;5.60;;;;;;;20.92;90.87;100064.55;1730150;81;21881;-84
2022/08/27 06:56:43;;;;;;;7.65;4.97;;;;;;;20.98;90.69;100062.72;1737398;81;21178;-86
2022/08/27 06:59:15;;;;;;;6.37;5.35;;;;;;;21.06;90.90;100072.23;1747605;81;22315;-85
2022/08/27 07:01:52;;;;;;;6.65;4.87;;;;;;;21.15;90.93;100072.77;1735058;81;21059;-85
2022/08/27 07:04:21;;;;;;;6.28;5.17;;;;;;;21.24;90.72;100075.11;1723899;81;21557;-81
2022/08/27 07:06:49;;;;;;;6.47;5.10;;;;;;;21.34;90.50;100081.84;1738427;81;21024;-84
2022/08/27 07:09:19;;;;;;;6.90;5.40;;;;;;;21.40;90.36;100086.66;1735704;81;22675;-83
2022/08/27 07:11:47;;;;;;;6.33;4.80;;;;;;;21.50;90.33;100094.68;1741124;81;27651;-87
2022/08/27 07:14:18;;;;;;;8.08;5.10;;;;;;;21.57;89.65;100097.17;1726379;81;21380;-89
2022/08/27 07:16:48;;;;;;;8.15;5.00;;;;;;;21.65;89.47;100099.17;1720898;81;20993;-85
2022/08/27 07:19:15;;;;;;;6.78;4.90;;;;;;;21.72;89.26;100099.81;1732433;81;21054;-84
2022/08/27 07:21:42;;;;;;;5.40;4.05;;;;;;;21.79;89.10;100110.30;1735875;81;21985;-84
2022/08/27 07:24:11;;;;;;;5.20;4.12;;;;;;;21.86;88.92;100109.75;1741834;81;21118;-83
2022/08/27 07:26:41;;;;;;;9.60;5.00;;;;;;;21.94;88.73;100112.09;1737672;81;21066;-83
2022/08/27 07:29:11;;;;;;;7.30;4.53;;;;;;;22.03;88.40;100115.28;1729258;81;21059;-84
2022/08/27 07:31:38;;;;;;;9.18;5.42;;;;;;;22.11;88.23;100121.74;1752930;81;21098;-85
2022/08/27 07:34:06;;;;;;;5.72;4.58;;;;;;;22.15;87.29;100126.68;1749120;81;21144;-84
2022/08/27 07:36:34;;;;;;;5.17;4.25;;;;;;;22.18;87.12;100124.26;1747671;81;21048;-85
2022/08/27 07:39:01;;;;;;;9.48;4.53;;;;;;;22.25;86.97;100119.57;1745895;81;21056;-85
2022/08/27 07:41:30;;;;;;;8.13;4.85;;;;;;;22.33;86.63;100118.02;1754634;81;21028;-80
2022/08/27 07:46:47;;;;;;;6.50;4.37;;;;;;;22.49;86.39;100116.97;1750609;81;21203;-84
2022/08/27 07:49:19;;;;;;;6.92;4.20;;;;;;;22.60;86.24;100120.00;1757032;80;21074;-83
2022/08/27 07:51:46;;;;;;;6.80;4.37;;;;;;;22.67;85.91;100127.31;1749519;81;21095;-81
2022/08/27 07:54:13;;;;;;;9.78;4.95;;;;;;;22.75;85.56;100122.57;1749981;81;21095;-81
2022/08/27 07:56:41;;;;;;;6.28;4.20;;;;;;;22.83;85.34;100123.20;1757713;80;21077;-82
2022/08/27 07:59:08;;;;;;;6.95;4.42;;;;;;;22.93;85.24;100123.55;1763379;80;21129;-83
2022/08/27 08:01:36;;;;;;;6.35;4.50;;;;;;;23.02;85.04;100123.20;1782426;80;21049;-81
2022/08/27 08:04:04;;;;;;;6.03;4.33;;;;;;;23.11;84.99;100127.70;1782518;80;21069;-80
2022/08/27 08:06:31;;;;;;;4.92;3.90;;;;;;;23.20;84.37;100130.50;1782761;80;21077;-83
2022/08/27 08:08:59;;;;;;;6.75;4.15;;;;;;;23.29;84.11;100126.45;1782221;80;21095;-81
2022/08/27 08:11:27;;;;;;;6.20;3.80;;;;;;;23.38;83.66;100118.87;1785010;78;21102;-82
2022/08/27 08:13:54;;;;;;;6.85;4.00;;;;;;;23.47;83.50;100116.31;1787712;78;21037;-82
2022/08/27 08:16:24;;;;;;;5.90;3.75;;;;;;;23.55;83.33;100123.95;1787075;78;21647;-83
2022/08/27 08:18:51;;;;;;;5.87;3.75;;;;;;;23.67;82.57;100129.14;1777386;80;21064;-82
2022/08/27 08:21:18;;;;;;;5.25;4.00;;;;;;;23.73;82.28;100126.73;1780108;80;21061;-82
2022/08/27 08:23:48;;;;;;;5.85;3.90;;;;;;;23.80;82.26;100124.30;1776960;80;21219;-82
2022/08/27 08:26:15;;;;;;;;;;;;;;;23.90;82.11;100124.25;1784793;80;21049;-81
2022/08/27 08:28:42;;;;;;;5.03;3.65;;;;;;;23.96;81.02;100127.17;1781302;78;20453;-85
2022/08/27 08:31:10;;;;;;;6.47;3.77;;;;;;;23.99;80.90;100120.17;1764209;80;21031;-82
2022/08/27 08:33:37;;;;;;;5.12;3.83;;;;;;;24.07;81.17;100118.59;1754539;81;21604;-82
2022/08/27 08:36:12;;;;;;;4.25;3.75;;;;;;;24.21;81.02;100120.74;1760404;81;21191;-82
2022/08/27 08:38:40;;;;;;;6.78;3.87;;;;;;;24.33;80.74;100120.89;1748239;81;21052;-80
2022/08/27 08:41:34;;;;;;;4.28;3.65;;;;;;;24.40;79.79;100124.62;1753935;81;21496;-81
2022/08/27 08:44:07;;;;;;;5.60;3.90;;;;;;;24.41;79.24;100128.13;1750925;81;21043;-80
2022/08/27 08:46:48;;;;;;;5.60;3.55;;;;;;;24.40;78.79;100123.78;1750474;80;21008;-83
2022/08/27 08:49:48;;;;;;;4.67;3.40;;;;;;;24.45;79.08;100119.68;1751316;81;21142;-81
2022/08/27 08:52:37;;;;;;;6.30;3.98;;;;;;;24.52;79.05;100117.22;1750392;81;21051;-83
2022/08/27 08:55:12;;;;;;;8.85;4.03;;;;;;;24.59;78.74;100122.31;1750700;81;21063;-80
2022/08/27 08:57:59;;;;;;;6.30;3.95;;;;;;;24.64;78.27;100120.53;1756360;80;21075;-80
2022/08/27 09:00:27;;;;;;;5.47;3.92;;;;;;;24.68;77.96;100112.50;1750896;81;21044;-80
2022/08/27 09:02:54;;;;;;;6.33;3.83;;;;;;;24.74;77.83;100118.58;1752556;81;21133;-80
2022/08/27 09:05:24;;;;;;;8.45;4.60;;;;;;;24.88;77.85;100115.84;1748295;81;21508;-81
2022/08/27 09:08:08;;;;;;;7.60;4.50;;;;;;;24.97;77.25;100118.94;1748771;81;21070;-81
2022/08/27 09:11:11;;;;;;;8.95;4.62;;;;;;;25.03;76.70;100114.28;1761508;80;21063;-81
2022/08/27 09:13:43;;;;;;;5.60;4.65;;;;;;;25.09;76.55;100111.47;1754152;81;21047;-81
2022/08/27 09:16:10;;;;;;;8.08;4.70;;;;;;;25.18;76.47;100112.39;1758317;80;21781;-81
2022/08/27 09:18:43;;;;;;;9.03;5.35;;;;;;;25.18;75.45;100114.57;1755987;81;21043;-81
2022/08/27 09:21:26;;;;;;;9.58;4.90;;;;;;;25.22;75.55;100109.72;1759175;81;20988;-84
2022/08/27 09:24:05;;;;;;;8.10;5.28;;;;;;;25.29;75.28;100111.62;1747666;81;21052;-82
2022/08/27 09:26:36;;;;;;;7.20;4.80;;;;;;;25.33;74.67;100112.13;1753185;81;21501;-81
2022/08/27 09:29:21;;;;;;;7.70;5.37;;;;;;;25.34;74.64;100105.28;1733921;81;21124;-81
2022/08/27 09:31:59;;;;;;;9.00;4.67;;;;;;;25.39;74.92;100107.50;1782207;78;21082;-85
2022/08/27 09:34:39;;;;;;;6.37;4.65;;;;;;;25.44;74.52;100111.89;1781704;79;21694;-82
2022/08/27 09:37:22;;;;;;;6.90;4.67;;;;;;;25.57;74.49;100116.28;1762259;79;21504;-81
2022/08/27 09:39:53;;;;;;;10.48;5.05;;;;;;;25.69;74.47;100116.00;1778386;80;21011;-81
2022/08/27 09:42:51;;;;;;;8.70;4.95;;;;;;;25.76;73.93;100122.41;1760315;80;21136;-82
2022/08/27 09:45:26;;;;;;;7.92;5.10;;;;;;;25.79;73.53;100120.23;1757487;80;21114;-81
2022/08/27 09:48:19;;;;;;;6.33;4.78;;;;;;;25.91;73.40;100113.26;1757519;80;21086;-81
2022/08/27 09:50:53;;;;;;;15.03;5.60;;;;;;;26.00;73.43;100114.48;1779832;79;21577;-83
2022/08/27 09:53:35;;;;;;;11.00;5.37;;;;;;;26.14;73.18;100117.54;1759281;80;21063;-82
2022/08/27 09:56:08;;;;;;;6.70;4.97;;;;;;;26.34;73.10;100114.05;1768840;80;21156;-81
2022/08/27 09:58:49;;;;;;;7.05;4.45;;;;;;;26.47;72.32;100118.43;1757725;80;21039;-81
2022/08/27 10:01:26;;;;;;;7.17;5.33;;;;;;;26.56;71.75;100121.48;1748931;82;21099;-82
2022/08/27 10:04:09;;;;;;;7.03;5.03;;;;;;;26.63;71.72;100120.30;1749236;82;21552;-81
2022/08/27 10:06:40;;;;;;;7.30;5.17;;;;;;;26.64;71.44;100121.48;1717353;82;21314;-82
2022/08/27 10:09:33;;;;;;;7.10;5.08;;;;;;;26.65;70.69;100129.05;1749326;82;21098;-82
2022/08/27 10:12:20;;;;;;;10.88;4.62;;;;;;;26.61;70.60;100127.71;1748719;82;21043;-81
2022/08/27 10:14:58;;;;;;;7.40;4.40;;;;;;;26.74;70.82;100127.19;1749344;82;21098;-82
2022/08/27 10:17:33;;;;;;;6.05;4.15;;;;;;;26.92;69.86;100123.83;1749249;82;21509;-82
2022/08/27 10:20:25;;;;;;;7.28;4.42;;;;;;;27.04;69.33;100127.00;1748559;82;21301;-82
2022/08/27 10:23:13;;;;;;;7.20;4.42;;;;;;;27.19;68.65;100129.38;1749167;82;21223;-82
2022/08/27 10:26:08;;;;;;;9.23;4.85;;;;;;;27.41;68.45;100130.98;1749376;82;21227;-82
2022/08/27 10:29:03;;;;;;;10.40;4.65;;;;;;;27.53;68.20;100122.89;1749098;82;21520;-82
2022/08/27 10:31:45;;;;;;;7.10;4.10;;;;;;;27.68;67.95;100128.37;1750198;81;21055;-82
2022/08/27 10:34:41;;;;;;;8.40;4.28;;;;;;;27.78;67.75;100127.16;1751220;81;21055;-86
2022/08/27 10:37:35;;;;;;;8.18;4.60;;;;;;;27.88;67.05;100136.42;1751639;81;21411;-82
2022/08/27 10:40:17;;;;;;;5.83;3.90;;;;;;;27.93;66.80;100129.14;1742729;80;21049;-82
2022/08/27 10:43:26;;;;;;;6.37;4.20;;;;;;;28.03;66.67;100122.52;1741023;81;21048;-81
2022/08/27 10:45:59;;;;;;;;;;;;;;;28.14;66.39;100119.10;1771961;80;21039;-82
2022/08/27 10:48:40;;;;;;;7.72;4.45;;;;;;;28.18;65.31;100123.11;1766985;80;20573;-83
2022/08/27 10:51:27;;;;;;;8.03;4.22;;;;;;;28.33;65.77;100117.81;1740859;81;21192;-83
2022/08/27 10:54:40;;;;;;;7.58;4.40;;;;;;;28.61;65.86;100113.57;1740788;81;21666;-83
2022/08/27 10:57:24;;;;;;;5.47;4.00;;;;;;;28.87;65.53;100121.26;1741105;80;21020;-85
2022/08/27 11:00:10;;;;;;;7.42;3.80;;;;;;;29.04;64.56;100112.52;1761603;80;21036;-86
2022/08/27 11:02:45;;;;;;;5.97;3.42;;;;;;;29.08;63.89;100117.06;1762023;78;21036;-86
2022/08/27 11:05:45;;;;;;;5.42;3.47;;;;;;;29.04;63.34;100110.34;1775751;78;21352;-85
2022/08/27 11:08:35;;;;;;;8.65;3.90;;;;;;;29.07;63.19;100113.53;1764080;78;21014;-81
2022/08/27 11:11:11;;;;;;;6.17;3.47;;;;;;;29.07;62.63;100107.27;1729329;81;21134;-87
2022/08/27 11:13:50;;;;;;;6.72;3.30;;;;;;;29.23;63.02;100118.42;1791209;79;20998;-86
2022/08/27 11:16:28;;;;;;;5.75;3.55;;;;;;;29.53;62.65;100117.91;1791465;80;21038;-84
2022/08/27 11:19:06;;;;;;;4.90;3.40;;;;;;;29.72;61.85;100119.24;1778197;80;21665;-84
2022/08/27 11:22:03;;;;;;;5.53;2.47;;;;;;;29.86;60.88;100122.42;1741420;80;21085;-85
2022/08/27 11:24:46;;;;;;;5.05;2.87;;;;;;;29.93;59.71;100123.84;1735464;81;21043;-84
2022/08/27 11:27:18;;;;;;;6.22;3.45;;;;;;;29.98;58.98;100121.41;1762289;80;21506;-86
2022/08/27 11:29:55;;;;;;;6.12;3.20;;;;;;;30.10;59.00;100118.56;1761021;80;21099;-85
2022/08/27 11:32:59;;;;;;;4.05;2.72;;;;;;;30.19;58.29;100125.51;1751305;80;21101;-86
2022/08/27 11:36:08;;;;;;;6.05;3.00;;;;;;;29.94;57.62;100118.27;1760780;81;21026;-87
2022/08/27 11:38:55;;;;;;;5.22;3.40;;;;;;;29.65;57.44;100116.44;1784487;79;21654;-86
2022/08/27 11:41:51;;;;;;;6.10;3.60;;;;;;;29.60;57.75;100117.50;1691017;84;21561;-86
2022/08/27 11:44:25;;;;;;;6.22;3.37;;;;;;;29.76;58.27;100117.33;1702514;84;21119;-90
2022/08/27 11:47:24;;;;;;;5.60;3.60;;;;;;;29.87;58.05;100111.93;1700953;82;21141;-91
2022/08/27 11:50:06;;;;;;;5.67;3.17;;;;;;;29.88;58.00;100110.92;1691596;84;21541;-87
2022/08/27 11:52:46;;;;;;;8.28;3.22;;;;;;;30.08;58.22;100115.72;1701468;84;21012;-86
2022/08/27 11:55:25;;;;;;;3.92;3.33;;;;;;;30.20;57.32;100116.36;1676176;84;21063;-83